Time;durP1;ratioP1;P1;durP2;ratioP2;P2;SDS_P1;SDS_P2;PMS_P1;PMS_P2;Temp;Humidity;BMP_temperature;BMP_pressure;BME280_temperature;BME280_humidity;BME280_pressure;Samples;Min_cycle;Max_cycle;Signal;HPM_P1;HPM_P2
2022/04/24 00:01:56;;;;;;;10.38;6.03;;;;;;;16.59;61.04;100176.06;5075792;28;20027;-82
2022/04/24 00:04:24;;;;;;;16.05;6.53;;;;;;;16.41;60.55;100150.13;5075360;28;20495;-82
2022/04/24 00:06:53;;;;;;;14.35;4.93;;;;;;;16.43;60.52;100159.78;5075358;28;20025;-81
2022/04/24 00:09:20;;;;;;;17.92;5.38;;;;;;;16.36;60.54;100168.81;5075692;28;20371;-81
2022/04/24 00:11:45;;;;;;;16.73;4.80;;;;;;;16.32;60.88;100174.59;5076412;28;20027;-81
2022/04/24 00:14:11;;;;;;;14.02;5.43;;;;;;;16.10;61.00;100161.72;5072331;28;20024;-80
2022/04/24 00:16:38;;;;;;;21.42;5.65;;;;;;;16.03;61.32;100163.44;5055267;28;20471;-82
2022/04/24 00:19:04;;;;;;;15.25;5.43;;;;;;;16.10;61.76;100182.59;5055443;28;20021;-82
2022/04/24 00:21:30;;;;;;;13.18;4.70;;;;;;;15.89;61.78;100150.56;5055637;28;20025;-82
2022/04/24 00:23:55;;;;;;;21.38;5.53;;;;;;;15.98;61.84;100182.09;5055326;28;20025;-82
2022/04/24 00:26:21;;;;;;;30.33;5.38;;;;;;;15.77;62.11;100158.19;5055504;28;20444;-82
2022/04/24 00:28:46;;;;;;;28.58;5.95;;;;;;;15.73;62.40;100156.84;5054480;28;20028;-80
2022/04/24 00:31:11;;;;;;;26.20;4.53;;;;;;;15.65;62.52;100148.72;5056326;28;20102;-80
2022/04/24 00:33:37;;;;;;;12.55;4.32;;;;;;;15.66;62.98;100155.81;5075650;28;20020;-80
2022/04/24 00:36:03;;;;;;;12.88;4.10;;;;;;;15.65;62.61;100164.13;5055251;28;20029;-81
2022/04/24 00:38:28;;;;;;;24.98;4.50;;;;;;;15.56;63.11;100160.56;5054666;28;20072;-81
2022/04/24 00:40:54;;;;;;;13.25;3.90;;;;;;;15.62;63.15;100175.31;5054678;28;20109;-81
2022/04/24 00:43:20;;;;;;;19.02;4.65;;;;;;;15.50;63.24;100166.66;5054503;28;20513;-80
2022/04/24 00:45:45;;;;;;;13.45;3.80;;;;;;;15.46;63.54;100167.97;5054499;28;20039;-81
2022/04/24 00:48:11;;;;;;;16.90;4.55;;;;;;;15.42;63.71;100168.44;5054826;28;20025;-81
2022/04/24 00:50:40;;;;;;;29.45;4.55;;;;;;;15.34;64.54;100182.00;5054190;28;20059;-81
2022/04/24 00:53:06;;;;;;;27.42;5.28;;;;;;;15.34;64.49;100196.41;5054302;28;20104;-82
2022/04/24 00:55:32;;;;;;;21.90;4.50;;;;;;;15.22;64.84;100187.75;5039056;28;20033;-82
2022/04/24 00:57:57;;;;;;;13.25;2.88;;;;;;;15.23;64.66;100192.13;5034002;28;20041;-82
2022/04/24 01:00:23;;;;;;;15.90;3.42;;;;;;;15.05;64.92;100164.31;5034335;28;20032;-81
2022/04/24 01:02:49;;;;;;;23.45;3.45;;;;;;;15.01;65.17;100164.81;5034415;28;20087;-81
2022/04/24 01:05:17;;;;;;;14.48;2.30;;;;;;;15.05;65.18;100187.81;5034196;28;20025;-82
2022/04/24 01:07:43;;;;;;;7.72;2.53;;;;;;;14.95;65.35;100177.13;5034119;28;20044;-81
2022/04/24 01:10:09;;;;;;;8.95;3.33;;;;;;;15.07;65.26;100204.78;5034730;28;20476;-81
2022/04/24 01:12:34;;;;;;;14.82;3.20;;;;;;;14.96;65.58;100184.25;5053840;28;20035;-81
2022/04/24 01:15:00;;;;;;;13.60;4.00;;;;;;;14.87;65.70;100168.97;5053857;28;20479;-81
2022/04/24 01:17:26;;;;;;;23.20;3.47;;;;;;;14.98;65.47;100186.81;5054009;28;20126;-81
2022/04/24 01:19:53;;;;;;;15.48;3.20;;;;;;;14.93;65.82;100192.69;5053578;28;20029;-83
2022/04/24 01:22:18;;;;;;;43.55;4.60;;;;;;;14.86;65.86;100169.16;5053690;28;20063;-81
2022/04/24 01:24:44;;;;;;;28.00;3.42;;;;;;;15.01;65.86;100197.31;5053841;28;20033;-81
2022/04/24 01:27:10;;;;;;;20.27;3.47;;;;;;;15.00;65.89;100201.03;5053944;28;20025;-81
2022/04/24 01:29:35;;;;;;;7.72;2.83;;;;;;;14.88;66.02;100176.09;5053776;28;20091;-82
2022/04/24 01:32:00;;;;;;;5.18;3.10;;;;;;;14.99;65.67;100189.34;5053816;28;20549;-81
2022/04/24 01:34:26;;;;;;;13.40;3.47;;;;;;;15.00;65.73;100199.16;5053338;28;20045;-81
2022/04/24 01:36:51;;;;;;;20.08;4.00;;;;;;;14.82;65.67;100175.91;5053620;28;20056;-81
2022/04/24 01:39:17;;;;;;;6.80;3.42;;;;;;;14.95;65.90;100197.97;5034057;28;20083;-81
2022/04/24 01:41:43;;;;;;;17.23;3.70;;;;;;;14.94;66.02;100201.69;5034133;28;20053;-81
2022/04/24 01:44:08;;;;;;;15.77;4.85;;;;;;;14.82;65.87;100176.75;5033374;28;20454;-81
2022/04/24 01:46:34;;;;;;;14.48;3.80;;;;;;;14.96;65.82;100195.06;5033751;28;20029;-82
2022/04/24 01:48:59;;;;;;;27.92;5.82;;;;;;;14.88;65.71;100186.94;5033772;28;20097;-82
2022/04/24 01:51:25;;;;;;;15.00;3.90;;;;;;;14.87;65.82;100179.81;5047849;28;20025;-81
2022/04/24 01:53:50;;;;;;;15.50;4.45;;;;;;;15.05;65.62;100207.63;5033999;28;20029;-83
2022/04/24 01:56:15;;;;;;;18.65;2.92;;;;;;;14.91;65.55;100193.88;5033468;28;20483;-82
2022/04/24 01:58:41;;;;;;;15.73;4.45;;;;;;;14.97;65.85;100214.88;5033383;28;20028;-81
2022/04/24 02:01:07;;;;;;;11.73;3.28;;;;;;;14.92;65.69;100211.84;5033430;28;20100;-81
2022/04/24 02:03:34;;;;;;;15.00;3.78;;;;;;;14.71;65.69;100185.16;5033806;28;20021;-81
2022/04/24 02:06:00;;;;;;;13.35;4.03;;;;;;;14.87;65.86;100209.59;5033478;28;20032;-81
2022/04/24 02:08:27;;;;;;;13.90;4.55;;;;;;;14.74;65.81;100186.72;5034331;28;20018;-80
2022/04/24 02:10:52;;;;;;;23.20;4.13;;;;;;;14.71;66.17;100186.00;5048635;28;20028;-81
2022/04/24 02:13:18;;;;;;;12.68;3.40;;;;;;;14.76;66.04;100196.38;5040404;28;20478;-80
2022/04/24 02:15:45;;;;;;;7.20;4.72;;;;;;;14.87;65.90;100204.19;5050583;28;20028;-82
2022/04/24 02:18:11;;;;;;;8.48;4.68;;;;;;;14.77;66.18;100176.38;5054758;28;20547;-80
2022/04/24 02:20:36;;;;;;;12.68;5.07;;;;;;;14.79;65.65;100160.00;5054609;28;20025;-82
2022/04/24 02:23:02;;;;;;;13.88;4.45;;;;;;;15.08;64.91;100201.03;5054707;28;20025;-81
2022/04/24 02:25:28;;;;;;;10.90;5.20;;;;;;;15.08;64.38;100193.78;5054783;28;20060;-81
2022/04/24 02:27:55;;;;;;;12.23;4.68;;;;;;;15.14;64.57;100187.69;5054603;28;20410;-81
2022/04/24 02:30:26;;;;;;;8.13;4.95;;;;;;;15.29;64.40;100193.31;5054172;28;20029;-82
2022/04/24 02:32:52;;;;;;;9.65;4.45;;;;;;;15.34;63.34;100198.25;5053079;28;20418;-80
2022/04/24 02:35:17;;;;;;;19.30;4.80;;;;;;;15.28;63.01;100183.50;5057794;28;20040;-82
2022/04/24 02:37:44;;;;;;;9.77;4.55;;;;;;;15.37;62.77;100192.50;5073077;28;20041;-81
2022/04/24 02:40:14;;;;;;;8.70;3.92;;;;;;;15.36;62.51;100185.38;5072558;28;20039;-82
2022/04/24 02:42:40;;;;;;;8.30;3.72;;;;;;;15.52;61.96;100202.56;5071400;28;20391;-81
2022/04/24 02:45:07;;;;;;;11.70;5.20;;;;;;;15.62;62.02;100221.38;5072900;28;20025;-82
2022/04/24 02:47:33;;;;;;;8.40;3.60;;;;;;;15.58;61.59;100199.19;5072756;28;20104;-82
2022/04/24 02:49:59;;;;;;;10.95;3.90;;;;;;;15.58;61.71;100196.47;5073020;28;20107;-82
2022/04/24 02:52:24;;;;;;;46.78;6.85;;;;;;;15.67;61.77;100205.47;5072835;28;20443;-80
2022/04/24 02:54:50;;;;;;;12.07;4.63;;;;;;;15.76;61.67;100221.56;5072554;28;20024;-81
2022/04/24 02:57:15;;;;;;;7.07;4.35;;;;;;;15.60;61.63;100212.56;5072673;28;20025;-81
2022/04/24 02:59:50;;;;;;;11.18;5.18;;;;;;;15.59;61.87;100219.88;5072634;28;20399;-80
2022/04/24 03:02:17;;;;;;;11.52;5.45;;;;;;;15.66;61.89;100241.72;5072569;28;20017;-80
2022/04/24 03:04:45;;;;;;;8.20;4.45;;;;;;;15.58;62.31;100239.00;5063317;28;20021;-81
2022/04/24 03:07:11;;;;;;;18.67;5.38;;;;;;;15.55;62.53;100233.91;5053004;28;20029;-82
2022/04/24 03:09:37;;;;;;;15.57;4.88;;;;;;;15.54;62.45;100230.34;5052131;28;20015;-82
2022/04/24 03:12:03;;;;;;;16.42;4.82;;;;;;;15.59;62.51;100230.72;5052244;28;20028;-81
2022/04/24 03:14:28;;;;;;;24.33;6.07;;;;;;;15.51;62.55;100217.13;5052564;28;20019;-82
2022/04/24 03:16:54;;;;;;;25.58;5.47;;;;;;;15.56;62.28;100236.47;5052413;28;20390;-81
2022/04/24 03:19:19;;;;;;;9.75;5.15;;;;;;;15.52;62.27;100228.81;5052245;28;20902;-82
2022/04/24 03:21:45;;;;;;;16.00;4.53;;;;;;;15.59;62.17;100241.56;5051219;28;20439;-81
2022/04/24 03:24:10;;;;;;;9.27;5.15;;;;;;;15.74;62.23;100266.16;5052225;28;20526;-81
2022/04/24 03:26:36;;;;;;;17.05;4.82;;;;;;;15.61;62.33;100254.91;5052607;28;20092;-81
2022/04/24 03:29:02;;;;;;;8.60;4.72;;;;;;;15.75;61.99;100278.66;5052600;28;20063;-80
2022/04/24 03:31:27;;;;;;;9.18;5.03;;;;;;;15.59;62.12;100262.38;5051488;28;20021;-81
2022/04/24 03:33:54;;;;;;;14.52;5.47;;;;;;;15.69;61.72;100285.59;5052950;28;20398;-81
2022/04/24 03:36:19;;;;;;;17.73;5.00;;;;;;;15.55;61.99;100266.44;5052441;28;20048;-81
2022/04/24 03:38:45;;;;;;;15.60;5.22;;;;;;;15.70;62.39;100291.88;5052147;28;20033;-81
2022/04/24 03:41:11;;;;;;;13.10;5.38;;;;;;;15.58;62.25;100280.50;5052998;28;20530;-81
2022/04/24 03:43:36;;;;;;;14.20;5.13;;;;;;;15.55;62.05;100263.72;5052341;28;20402;-80
2022/04/24 03:46:05;;;;;;;9.13;4.57;;;;;;;15.73;61.89;100297.81;5052484;28;20099;-79
2022/04/24 03:48:31;;;;;;;9.98;4.50;;;;;;;15.77;62.31;100303.78;5076200;28;20024;-81
2022/04/24 03:50:56;;;;;;;10.48;5.07;;;;;;;15.79;62.25;100301.72;5080478;28;20103;-81
2022/04/24 03:53:22;;;;;;;10.27;5.00;;;;;;;15.82;61.89;100305.97;5072069;28;20526;-79
2022/04/24 03:55:47;;;;;;;21.70;4.95;;;;;;;15.79;62.13;100293.59;5071798;28;20025;-79
2022/04/24 03:58:13;;;;;;;17.33;5.78;;;;;;;15.75;62.37;100297.66;5071550;28;20477;-79
2022/04/24 04:00:38;;;;;;;14.93;4.97;;;;;;;15.79;61.97;100304.44;5070561;28;20466;-79
2022/04/24 04:03:03;;;;;;;10.95;5.43;;;;;;;15.82;62.12;100309.53;5070703;28;20406;-80
2022/04/24 04:05:29;;;;;;;12.82;5.63;;;;;;;15.85;62.19;100308.34;5054496;28;20449;-80
2022/04/24 04:07:55;;;;;;;12.73;5.80;;;;;;;15.81;62.35;100310.53;5059903;28;20478;-77
2022/04/24 04:10:22;;;;;;;22.75;5.88;;;;;;;15.83;62.15;100302.25;5061128;28;20039;-78
2022/04/24 04:12:51;;;;;;;14.80;5.10;;;;;;;15.87;62.58;100314.47;5061728;28;20020;-78
2022/04/24 04:15:16;;;;;;;10.90;5.28;;;;;;;15.81;62.38;100313.25;5062783;28;20478;-82
2022/04/24 04:17:42;;;;;;;8.98;5.40;;;;;;;15.87;61.91;100307.16;5060109;28;20029;-79
2022/04/24 04:20:11;;;;;;;15.60;5.90;;;;;;;15.94;62.24;100324.47;5059556;28;20055;-79
2022/04/24 04:22:55;;;;;;;16.13;5.20;;;;;;;16.02;62.23;100332.66;5058432;28;20403;-79
2022/04/24 04:25:23;;;;;;;13.35;6.07;;;;;;;16.06;61.97;100331.28;5056797;28;20425;-79
2022/04/24 04:27:48;;;;;;;22.63;8.85;;;;;;;16.08;61.93;100331.97;5074523;28;20111;-79
2022/04/24 04:30:14;;;;;;;14.80;6.75;;;;;;;16.12;61.71;100330.59;5072731;28;20461;-79
2022/04/24 04:32:39;;;;;;;18.67;8.27;;;;;;;16.08;61.40;100344.69;5053090;28;20107;-79
2022/04/24 04:35:07;;;;;;;32.50;7.82;;;;;;;16.18;61.47;100345.38;5054863;28;20084;-81
2022/04/24 04:37:33;;;;;;;16.20;7.95;;;;;;;16.19;61.56;100347.91;5055541;28;20072;-78
2022/04/24 04:40:00;;;;;;;24.30;8.57;;;;;;;16.25;61.56;100341.81;5055221;28;20508;-79
2022/04/24 04:42:25;;;;;;;14.27;8.45;;;;;;;16.31;61.11;100346.59;5054289;28;20044;-79
2022/04/24 04:44:51;;;;;;;16.20;7.93;;;;;;;16.33;61.01;100352.69;5068291;28;20028;-80
2022/04/24 04:47:16;;;;;;;16.60;8.98;;;;;;;16.33;60.79;100352.69;5073976;28;20029;-79
2022/04/24 04:49:41;;;;;;;18.52;8.27;;;;;;;16.40;61.14;100352.00;5074693;28;20031;-79
2022/04/24 04:52:07;;;;;;;20.90;9.32;;;;;;;16.39;61.44;100336.75;5073836;28;20026;-80
2022/04/24 04:54:34;;;;;;;23.65;9.27;;;;;;;16.47;61.32;100355.75;5074320;28;20031;-79
2022/04/24 04:56:59;;;;;;;28.75;11.07;;;;;;;16.53;61.35;100353.22;5068829;28;20044;-83
2022/04/24 04:59:25;;;;;;;28.48;10.82;;;;;;;16.54;61.00;100340.50;5053924;28;20064;-80
2022/04/24 05:01:50;;;;;;;19.20;11.23;;;;;;;16.67;61.20;100357.13;5060440;28;20035;-79
2022/04/24 05:04:16;;;;;;;23.00;8.95;;;;;;;16.76;60.87;100351.53;5073939;28;20058;-79
2022/04/24 05:06:41;;;;;;;18.02;9.43;;;;;;;16.85;60.76;100353.22;5074175;28;20078;-78
2022/04/24 05:09:07;;;;;;;30.08;10.82;;;;;;;16.94;60.72;100364.09;5073583;28;20013;-80
2022/04/24 05:11:33;;;;;;;17.88;10.35;;;;;;;16.97;60.57;100355.59;5070543;28;20383;-79
2022/04/24 05:13:58;;;;;;;22.55;10.18;;;;;;;16.97;60.18;100356.41;5071933;28;20035;-79
2022/04/24 05:16:24;;;;;;;34.70;13.10;;;;;;;16.94;60.29;100354.03;5053260;28;20033;-81
2022/04/24 05:18:49;;;;;;;31.17;12.10;;;;;;;17.08;60.21;100349.78;5053589;28;20539;-79
2022/04/24 05:21:17;;;;;;;28.05;13.07;;;;;;;17.23;60.08;100362.47;5055570;28;20059;-82
2022/04/24 05:23:45;;;;;;;23.13;13.27;;;;;;;17.19;60.04;100352.97;5073298;28;20032;-79
2022/04/24 05:26:12;;;;;;;33.35;13.07;;;;;;;17.25;59.85;100356.84;5057802;28;20036;-81
2022/04/24 05:28:37;;;;;;;20.77;13.98;;;;;;;17.18;59.63;100362.16;5065971;28;20021;-79
2022/04/24 05:31:03;;;;;;;23.73;13.68;;;;;;;17.22;59.69;100357.22;5058429;28;20067;-79
2022/04/24 05:33:28;;;;;;;31.17;15.20;;;;;;;17.31;59.18;100362.44;5063461;28;20037;-79
2022/04/24 05:35:54;;;;;;;27.10;14.45;;;;;;;17.40;59.02;100365.97;5073167;28;20061;-81
2022/04/24 05:38:19;;;;;;;38.53;15.48;;;;;;;17.53;58.76;100370.88;5066316;28;20036;-79
2022/04/24 05:40:44;;;;;;;38.20;15.45;;;;;;;17.57;58.57;100370.38;5052988;28;20075;-78
2022/04/24 05:43:10;;;;;;;45.08;21.90;;;;;;;17.62;58.44;100365.25;5053206;28;20095;-77
2022/04/24 05:45:36;;;;;;;28.77;14.02;;;;;;;17.70;58.56;100365.25;5052581;28;20029;-78
2022/04/24 05:48:02;;;;;;;23.65;12.30;;;;;;;17.80;58.77;100367.72;5053150;28;20060;-76
2022/04/24 05:50:27;;;;;;;20.98;10.48;;;;;;;17.93;58.55;100362.56;5053562;28;20058;-76
2022/04/24 05:52:55;;;;;;;17.60;11.35;;;;;;;17.79;57.72;100371.50;5052756;28;20032;-79
2022/04/24 05:55:21;;;;;;;21.63;10.90;;;;;;;17.78;57.30;100372.50;5052855;28;20467;-84
2022/04/24 05:57:49;;;;;;;28.88;11.40;;;;;;;17.97;57.63;100382.09;5053667;28;20068;-81
2022/04/24 06:00:16;;;;;;;20.88;11.80;;;;;;;17.97;57.33;100379.38;5051963;28;20125;-79
2022/04/24 06:02:42;;;;;;;21.95;11.30;;;;;;;18.01;57.63;100378.84;5044787;28;20466;-79
2022/04/24 06:05:10;;;;;;;34.05;13.20;;;;;;;18.08;57.33;100390.72;5033942;28;20049;-84
2022/04/24 06:07:36;;;;;;;32.90;13.80;;;;;;;18.15;57.14;100394.41;5032881;28;20029;-80
2022/04/24 06:10:02;;;;;;;43.92;14.82;;;;;;;18.20;57.06;100392.00;5032624;28;20030;-77
2022/04/24 06:12:28;;;;;;;28.92;14.07;;;;;;;18.23;56.98;100390.78;5043874;28;20025;-78
2022/04/24 06:14:53;;;;;;;23.92;14.15;;;;;;;17.94;56.05;100391.47;5061856;28;20801;-83
2022/04/24 06:17:19;;;;;;;18.00;11.18;;;;;;;17.95;56.17;100404.03;5053390;28;20033;-81
2022/04/24 06:19:44;;;;;;;17.77;9.10;;;;;;;18.08;55.78;100396.16;5051387;28;20033;-82
2022/04/24 06:22:10;;;;;;;41.05;14.82;;;;;;;18.23;55.86;100402.53;5054001;28;20082;-82
2022/04/24 06:24:35;;;;;;;15.55;7.47;;;;;;;18.35;55.19;100401.09;5072244;28;20450;-80
2022/04/24 06:27:01;;;;;;;10.68;4.80;;;;;;;18.51;54.59;100402.88;5072703;28;20025;-81
2022/04/24 06:29:26;;;;;;;13.60;5.10;;;;;;;18.63;53.40;100411.47;5073033;28;20031;-82
2022/04/24 06:31:52;;;;;;;18.48;6.38;;;;;;;18.75;53.18;100399.13;5055479;28;20025;-80
2022/04/24 06:34:18;;;;;;;14.02;4.72;;;;;;;18.90;52.76;100400.00;5049841;28;20407;-81
2022/04/24 06:36:43;;;;;;;12.73;4.72;;;;;;;19.03;51.73;100394.78;5050562;28;20079;-81
2022/04/24 06:39:08;;;;;;;19.98;5.10;;;;;;;19.14;51.77;100388.91;5052843;28;20024;-80
2022/04/24 06:41:34;;;;;;;5.18;3.83;;;;;;;19.29;51.91;100405.28;5052424;28;20033;-80
2022/04/24 06:43:59;;;;;;;14.77;6.28;;;;;;;19.39;51.53;100401.25;5053724;28;20048;-80
2022/04/24 06:46:25;;;;;;;9.07;4.85;;;;;;;19.52;51.00;100387.81;5053332;28;20112;-80
2022/04/24 06:48:50;;;;;;;8.68;5.53;;;;;;;19.60;50.67;100377.84;5052893;28;20021;-81
2022/04/24 06:51:16;;;;;;;10.77;5.55;;;;;;;19.75;50.74;100392.34;5052741;28;20082;-81
2022/04/24 06:53:42;;;;;;;22.02;5.75;;;;;;;19.82;50.18;100393.25;5052659;28;20029;-81
2022/04/24 06:56:07;;;;;;;10.52;4.90;;;;;;;19.84;50.07;100378.41;5052740;28;20052;-80
2022/04/24 06:58:32;;;;;;;12.85;5.13;;;;;;;19.98;49.92;100393.03;5057933;28;20573;-81
2022/04/24 07:00:59;;;;;;;10.07;4.57;;;;;;;20.07;49.67;100391.88;5072661;28;20031;-81
2022/04/24 07:03:26;;;;;;;7.80;3.60;;;;;;;20.14;49.23;100395.56;5067296;28;20036;-82
2022/04/24 07:06:00;;;;;;;6.32;3.55;;;;;;;20.15;48.62;100397.22;5051605;28;20115;-80
2022/04/24 07:08:26;;;;;;;6.20;3.47;;;;;;;20.23;49.11;100399.84;5069606;28;20082;-84
2022/04/24 07:10:53;;;;;;;8.68;4.28;;;;;;;20.21;49.48;100390.19;5067748;28;20470;-80
2022/04/24 07:13:19;;;;;;;14.30;5.32;;;;;;;20.36;49.51;100404.66;5062113;28;20029;-81
2022/04/24 07:15:45;;;;;;;6.03;3.78;;;;;;;20.51;49.47;100398.09;5052595;28;20463;-80
2022/04/24 07:18:13;;;;;;;23.80;5.70;;;;;;;20.61;49.40;100398.59;5050857;28;20063;-81
2022/04/24 07:20:39;;;;;;;19.20;4.50;;;;;;;20.67;49.34;100377.03;5046092;28;20547;-87
2022/04/24 07:23:05;;;;;;;6.68;2.80;;;;;;;20.86;48.92;100387.28;5033730;28;20053;-87
2022/04/24 07:25:43;;;;;;;6.40;3.10;;;;;;;20.98;48.49;100392.00;5032919;28;20121;-87
2022/04/24 07:28:13;;;;;;;8.95;3.60;;;;;;;21.14;48.18;100391.75;5031474;28;20026;-84
2022/04/24 07:30:39;;;;;;;7.68;3.03;;;;;;;21.13;48.18;100389.22;5032332;28;20026;-86
2022/04/24 07:33:04;;;;;;;5.38;2.80;;;;;;;21.17;47.94;100383.16;5032232;28;20029;-79
2022/04/24 07:35:34;;;;;;;6.80;2.65;;;;;;;21.33;47.85;100384.75;5032506;28;20054;-79
2022/04/24 07:38:00;;;;;;;10.18;3.47;;;;;;;21.41;46.86;100394.66;5054684;28;20039;-80
2022/04/24 07:40:28;;;;;;;9.32;3.97;;;;;;;21.48;47.05;100387.34;5056101;28;20035;-81
2022/04/24 07:43:02;;;;;;;7.40;3.58;;;;;;;21.59;47.24;100382.16;5056211;28;20505;-80
2022/04/24 07:45:33;;;;;;;8.63;3.20;;;;;;;21.67;46.71;100390.22;5054533;28;20135;-80
2022/04/24 07:48:00;;;;;;;8.07;3.13;;;;;;;21.77;46.61;100389.00;5058790;28;20033;-79
2022/04/24 07:50:28;;;;;;;7.70;3.10;;;;;;;21.86;46.26;100385.91;5056456;28;20063;-80
2022/04/24 07:52:54;;;;;;;6.18;3.40;;;;;;;21.93;46.05;100374.97;5057844;28;20041;-80
2022/04/24 07:55:22;;;;;;;6.28;2.70;;;;;;;21.99;46.09;100366.78;5075568;28;20062;-81
2022/04/24 07:57:49;;;;;;;7.78;2.88;;;;;;;22.15;45.96;100376.53;5068781;28;20032;-80
2022/04/24 08:00:18;;;;;;;17.48;3.53;;;;;;;21.96;45.48;100367.22;5075633;28;20166;-80
2022/04/24 08:02:48;;;;;;;6.88;2.70;;;;;;;21.92;45.34;100381.53;5073534;28;20063;-79
2022/04/24 08:05:21;;;;;;;4.80;2.50;;;;;;;21.89;45.62;100379.19;5055189;28;20092;-79
2022/04/24 08:07:46;;;;;;;6.15;2.85;;;;;;;21.98;45.64;100375.22;5055611;28;20414;-81
2022/04/24 08:10:12;;;;;;;6.00;2.53;;;;;;;21.92;45.64;100365.09;5055418;28;20024;-79
2022/04/24 08:12:37;;;;;;;9.95;2.50;;;;;;;21.96;45.17;100369.09;5055292;28;20414;-80
2022/04/24 08:15:03;;;;;;;6.95;2.00;;;;;;;22.00;44.70;100373.13;5055169;28;20032;-81
2022/04/24 08:17:29;;;;;;;8.15;2.78;;;;;;;21.98;44.35;100353.31;5055149;28;20029;-81
2022/04/24 08:19:55;;;;;;;16.30;2.15;;;;;;;21.96;43.94;100356.25;5047978;28;20083;-77
2022/04/24 08:22:21;;;;;;;4.18;1.95;;;;;;;22.04;44.04;100364.31;5053835;28;20459;-79
2022/04/24 08:24:46;;;;;;;10.00;2.60;;;;;;;22.12;44.19;100363.25;5047657;28;20112;-79
2022/04/24 08:27:11;;;;;;;5.78;2.05;;;;;;;22.29;44.54;100366.47;5041674;28;20028;-80
2022/04/24 08:29:37;;;;;;;3.65;1.75;;;;;;;22.38;43.95;100357.88;5048330;28;20025;-80
2022/04/24 08:32:02;;;;;;;6.38;3.05;;;;;;;22.59;43.98;100363.19;5058448;28;20035;-80
2022/04/24 08:34:28;;;;;;;5.53;2.80;;;;;;;22.60;43.96;100353.88;5070506;28;20090;-78
2022/04/24 08:36:53;;;;;;;4.88;2.10;;;;;;;22.51;43.42;100368.84;5042797;28;20037;-77
2022/04/24 08:39:19;;;;;;;4.80;1.95;;;;;;;22.41;42.72;100371.16;5050434;28;20021;-79
2022/04/24 08:41:44;;;;;;;3.40;1.77;;;;;;;22.22;42.90;100366.47;5054647;28;20067;-79
2022/04/24 08:44:10;;;;;;;19.33;2.58;;;;;;;22.11;43.18;100369.78;5064366;28;20028;-80
2022/04/24 08:46:36;;;;;;;7.32;2.30;;;;;;;22.12;43.22;100368.75;5054557;28;20482;-79
2022/04/24 08:49:03;;;;;;;8.77;1.45;;;;;;;22.15;43.01;100358.22;5063740;28;20025;-79
2022/04/24 08:51:29;;;;;;;5.63;1.92;;;;;;;22.22;43.32;100371.94;5079113;28;20482;-79
2022/04/24 08:53:56;;;;;;;25.95;3.17;;;;;;;22.30;43.07;100370.91;5074169;28;20112;-79
2022/04/24 08:56:21;;;;;;;12.10;1.67;;;;;;;22.31;42.52;100375.34;5059673;28;20020;-85
2022/04/24 08:58:47;;;;;;;5.40;2.13;;;;;;;22.26;42.42;100373.22;5057418;28;20405;-82
2022/04/24 09:01:12;;;;;;;8.07;1.75;;;;;;;22.07;42.80;100369.38;5071874;28;20025;-80
2022/04/24 09:03:38;;;;;;;11.23;2.03;;;;;;;21.95;43.06;100364.69;5065017;28;20047;-78
2022/04/24 09:06:03;;;;;;;6.60;2.58;;;;;;;22.12;43.20;100355.03;5054978;28;20029;-84
2022/04/24 09:08:30;;;;;;;7.47;2.45;;;;;;;22.26;42.81;100373.22;5046897;28;20025;-76
2022/04/24 09:10:57;;;;;;;3.05;1.55;;;;;;;22.32;42.51;100372.41;5065103;28;20436;-80
2022/04/24 09:13:27;;;;;;;5.18;3.08;;;;;;;22.22;43.88;100364.56;5072064;28;20372;-77
2022/04/24 09:15:57;;;;;;;7.70;3.20;;;;;;;22.26;43.75;100373.22;5060208;28;20035;-77
2022/04/24 09:18:35;;;;;;;7.30;2.75;;;;;;;22.30;42.96;100369.00;5053900;28;20064;-77
2022/04/24 09:21:01;;;;;;;6.95;2.25;;;;;;;22.33;42.95;100363.09;5063180;28;20037;-79
2022/04/24 09:23:37;;;;;;;6.03;2.40;;;;;;;22.43;44.25;100369.03;5076408;28;20025;-77
2022/04/24 09:26:03;;;;;;;9.65;2.25;;;;;;;22.29;42.75;100358.25;5062948;28;20114;-76
2022/04/24 09:28:36;;;;;;;3.15;1.55;;;;;;;22.18;42.75;100354.22;5060193;28;20124;-77
2022/04/24 09:31:03;;;;;;;6.57;1.90;;;;;;;22.33;43.55;100360.38;5067748;28;20048;-79
2022/04/24 09:33:51;;;;;;;5.53;2.53;;;;;;;22.36;43.63;100368.16;5053618;28;20104;-77
2022/04/24 09:36:17;;;;;;;7.72;2.60;;;;;;;22.36;43.42;100354.47;5053910;28;20064;-77
2022/04/24 09:38:45;;;;;;;3.70;1.80;;;;;;;22.61;43.26;100361.06;5063082;28;20086;-77
2022/04/24 09:41:18;;;;;;;8.10;2.83;;;;;;;22.48;42.64;100352.81;5056622;28;20025;-77
2022/04/24 09:43:44;;;;;;;4.90;1.98;;;;;;;22.49;43.60;100354.50;5050457;28;20033;-77
2022/04/24 09:46:10;;;;;;;10.98;2.28;;;;;;;22.50;42.61;100358.94;5050932;28;20035;-78
2022/04/24 09:48:35;;;;;;;23.40;3.05;;;;;;;22.49;43.44;100351.75;5060375;28;20025;-80
2022/04/24 09:51:02;;;;;;;10.32;2.95;;;;;;;22.45;43.07;100355.97;5058429;28;20503;-76
2022/04/24 09:53:29;;;;;;;6.40;1.80;;;;;;;22.52;42.83;100354.09;5053076;28;20379;-77
2022/04/24 09:55:55;;;;;;;6.18;2.15;;;;;;;22.30;42.68;100359.94;5057961;28;20050;-78
2022/04/24 09:58:21;;;;;;;4.47;2.33;;;;;;;22.17;42.59;100349.78;5072222;28;20082;-77
2022/04/24 10:00:47;;;;;;;7.53;1.90;;;;;;;22.35;43.16;100350.06;5051699;28;20558;-78
2022/04/24 10:03:15;;;;;;;9.40;2.13;;;;;;;22.45;42.27;100353.22;5051784;28;20110;-78
2022/04/24 10:05:43;;;;;;;17.52;3.30;;;;;;;22.58;43.17;100350.50;5065744;28;20036;-83
2022/04/24 10:08:09;;;;;;;10.52;1.55;;;;;;;22.65;42.16;100351.41;5068672;28;20021;-74
2022/04/24 10:10:35;;;;;;;3.80;1.70;;;;;;;22.58;41.85;100349.66;5070630;28;20036;-75
2022/04/24 10:13:06;;;;;;;24.45;2.95;;;;;;;22.41;41.66;100349.22;5071022;28;20028;-77
2022/04/24 10:15:33;;;;;;;67.18;7.65;;;;;;;22.29;42.61;100350.91;5056546;28;20487;-77
2022/04/24 10:18:08;;;;;;;4.65;2.47;;;;;;;22.30;42.22;100352.56;5051614;28;20464;-77
2022/04/24 10:20:57;;;;;;;19.58;2.28;;;;;;;22.42;43.04;100359.13;5051923;28;20033;-76
2022/04/24 10:23:49;;;;;;;5.32;2.35;;;;;;;22.49;42.93;100357.25;5057085;28;20028;-77
2022/04/24 10:26:22;;;;;;;4.70;2.05;;;;;;;22.55;42.72;100350.94;5053399;28;20050;-76
2022/04/24 10:28:48;;;;;;;5.25;1.52;;;;;;;22.37;42.18;100342.47;5062902;28;20028;-76
2022/04/24 10:31:16;;;;;;;10.10;2.63;;;;;;;22.49;42.42;100340.81;5062509;28;20029;-83
2022/04/24 10:33:52;;;;;;;19.65;2.85;;;;;;;22.44;42.66;100351.56;5059585;28;20074;-84
2022/04/24 10:36:18;;;;;;;10.70;2.50;;;;;;;22.56;42.62;100330.69;5073715;28;20041;-84
2022/04/24 10:38:49;;;;;;;9.10;2.10;;;;;;;22.65;42.11;100340.44;5073039;28;20383;-83
2022/04/24 10:41:18;;;;;;;7.22;2.58;;;;;;;22.68;41.60;100355.63;5073044;28;20036;-83
2022/04/24 10:43:52;;;;;;;6.45;1.60;;;;;;;22.34;42.38;100336.56;5072606;28;20029;-83
2022/04/24 10:46:19;;;;;;;8.75;2.13;;;;;;;22.69;41.73;100349.91;5072658;28;20033;-83
2022/04/24 10:48:47;;;;;;;3.75;1.73;;;;;;;22.71;41.09;100334.13;5072466;28;20036;-83
2022/04/24 10:51:13;;;;;;;8.43;2.85;;;;;;;22.56;41.95;100338.91;5073068;28;20027;-83
2022/04/24 10:53:55;;;;;;;7.30;2.10;;;;;;;22.76;41.41;100342.53;5072245;28;20028;-83
2022/04/24 10:56:20;;;;;;;9.43;2.47;;;;;;;22.64;41.01;100333.22;5073146;28;20489;-83
2022/04/24 10:58:46;;;;;;;6.10;2.25;;;;;;;22.70;41.98;100337.03;5066311;28;20025;-84
2022/04/24 11:01:15;;;;;;;4.35;1.40;;;;;;;22.93;40.79;100342.97;5052471;28;20534;-83
2022/04/24 11:03:47;;;;;;;25.45;2.17;;;;;;;22.90;41.48;100337.06;5051342;28;20036;-84
2022/04/24 11:06:18;;;;;;;;;;;;;;;22.97;40.87;100346.09;5053736;28;20029;-83
2022/04/24 11:08:44;;;;;;;7.63;2.20;;;;;;;23.08;40.87;100342.75;5051426;28;20415;-82
2022/04/24 11:11:13;;;;;;;8.13;2.00;;;;;;;23.12;40.46;100335.75;5052957;28;20108;-82
2022/04/24 11:13:39;;;;;;;4.10;1.73;;;;;;;23.22;40.29;100319.69;5055279;28;20055;-82
2022/04/24 11:16:06;;;;;;;6.63;2.30;;;;;;;23.27;41.12;100328.16;5056924;28;20478;-83
2022/04/24 11:18:32;;;;;;;8.30;1.73;;;;;;;23.31;40.26;100323.91;5056042;28;20029;-83